Time;durP1;ratioP1;P1;durP2;ratioP2;P2;SDS_P1;SDS_P2;PMS_P1;PMS_P2;Temp;Humidity;BMP_temperature;BMP_pressure;BME280_temperature;BME280_humidity;BME280_pressure;Samples;Min_cycle;Max_cycle;Signal;HPM_P1;HPM_P2
2023/08/02 00:02:16;;;;;;;0.40;0.40;;;26.50;73.30;;;;;;6244636;23;20173;-88
2023/08/02 00:04:45;;;;;;;1.60;1.50;;;26.50;73.50;;;;;;6243471;23;20174;-88
2023/08/02 00:07:13;;;;;;;0.82;0.55;;;26.50;74.10;;;;;;6241757;23;20467;-86
2023/08/02 00:09:42;;;;;;;0.65;0.45;;;26.40;73.90;;;;;;6243817;23;20484;-86
2023/08/02 00:12:12;;;;;;;0.63;0.40;;;26.40;73.90;;;;;;6243190;23;20222;-85
2023/08/02 00:14:40;;;;;;;0.28;0.28;;;26.40;73.90;;;;;;6243040;23;20961;-88
2023/08/02 00:17:09;;;;;;;0.40;0.40;;;26.40;73.60;;;;;;6244840;23;20246;-88
2023/08/02 00:19:37;;;;;;;0.40;0.40;;;26.40;73.50;;;;;;6242443;23;20642;-88
2023/08/02 00:22:06;;;;;;;0.30;0.30;;;26.40;73.30;;;;;;6243335;23;20166;-85
2023/08/02 00:24:34;;;;;;;0.20;0.20;;;26.40;73.10;;;;;;6243393;23;20238;-87
2023/08/02 00:27:03;;;;;;;0.40;0.40;;;26.40;73.00;;;;;;6243099;23;20162;-87
2023/08/02 00:29:33;;;;;;;0.80;0.73;;;26.40;72.90;;;;;;6242727;23;20166;-87
2023/08/02 00:32:01;;;;;;;1.23;0.40;;;26.40;73.00;;;;;;6245304;23;20229;-87
2023/08/02 00:34:30;;;;;;;1.05;0.95;;;26.40;73.00;;;;;;6243802;23;20170;-85
2023/08/02 00:36:58;;;;;;;0.20;0.20;;;26.30;72.90;;;;;;6243980;22;20245;-87
2023/08/02 00:39:27;;;;;;;0.63;0.43;;;26.30;72.80;;;;;;6243004;23;20171;-87
2023/08/02 00:41:56;;;;;;;0.45;0.38;;;26.30;72.80;;;;;;6219363;23;20173;-86
2023/08/02 00:44:25;;;;;;;0.38;0.38;;;26.30;72.90;;;;;;6243657;22;20322;-85
2023/08/02 00:46:55;;;;;;;0.20;0.20;;;26.20;72.70;;;;;;6243035;22;20206;-86
2023/08/02 00:49:24;;;;;;;0.30;0.30;;;26.20;72.90;;;;;;6243604;23;20220;-86
2023/08/02 00:51:53;;;;;;;0.50;0.40;;;26.10;72.90;;;;;;6244013;22;20247;-88
2023/08/02 00:54:21;;;;;;;0.35;0.20;;;26.10;73.00;;;;;;6244396;23;20170;-89
2023/08/02 00:56:50;;;;;;;0.20;0.20;;;26.10;73.00;;;;;;6242966;23;20557;-87
2023/08/02 00:59:18;;;;;;;0.20;0.20;;;26.10;73.10;;;;;;6243477;23;20171;-88
2023/08/02 01:01:47;;;;;;;0.57;0.57;;;26.00;73.10;;;;;;6242517;23;20174;-87
2023/08/02 01:04:17;;;;;;;0.32;0.32;;;26.00;73.10;;;;;;6243846;23;20171;-86
2023/08/02 01:06:52;;;;;;;0.57;0.40;;;26.00;73.10;;;;;;6243566;23;20166;-86
2023/08/02 01:09:27;;;;;;;0.30;0.30;;;26.00;73.30;;;;;;6243509;23;20157;-87
2023/08/02 01:11:59;;;;;;;0.20;0.20;;;25.90;73.30;;;;;;6243674;23;20178;-88
2023/08/02 01:14:28;;;;;;;0.85;0.73;;;25.90;73.40;;;;;;6240860;23;20159;-86
2023/08/02 01:17:00;;;;;;;0.22;0.22;;;25.90;73.60;;;;;;6242993;23;20582;-88
2023/08/02 01:19:31;;;;;;;0.75;0.52;;;25.80;73.60;;;;;;6242853;23;20166;-88
2023/08/02 01:22:01;;;;;;;0.43;0.30;;;25.80;73.70;;;;;;6242902;23;20161;-86
2023/08/02 01:24:34;;;;;;;0.30;0.20;;;25.70;73.70;;;;;;6243797;23;20181;-87
2023/08/02 01:27:08;;;;;;;0.35;0.35;;;25.70;73.80;;;;;;6243705;23;20174;-89
2023/08/02 01:29:40;;;;;;;0.60;0.52;;;25.70;73.80;;;;;;6242710;23;20163;-88
2023/08/02 01:32:10;;;;;;;0.50;0.40;;;25.60;73.90;;;;;;6244370;23;20185;-89
2023/08/02 01:34:40;;;;;;;0.20;0.20;;;25.60;73.90;;;;;;6245299;23;20163;-88
2023/08/02 01:37:10;;;;;;;0.28;0.25;;;25.50;74.00;;;;;;6241522;23;20493;-86
2023/08/02 01:39:38;;;;;;;0.40;0.40;;;25.50;74.90;;;;;;6242818;23;20881;-88
2023/08/02 01:42:06;;;;;;;0.22;0.22;;;25.40;74.80;;;;;;6243057;23;20177;-86
2023/08/02 01:44:35;;;;;;;0.35;0.30;;;25.40;74.00;;;;;;6242394;23;20198;-87
2023/08/02 01:47:03;;;;;;;0.30;0.30;;;25.30;74.10;;;;;;6242879;23;20220;-87
2023/08/02 01:49:32;;;;;;;0.40;0.40;;;25.30;74.10;;;;;;6242291;23;20918;-86
2023/08/02 01:52:00;;;;;;;1.80;0.70;;;25.20;74.10;;;;;;6217497;23;20169;-86
2023/08/02 01:54:30;;;;;;;3.33;0.40;;;25.20;74.30;;;;;;6242171;23;20242;-88
2023/08/02 01:56:59;;;;;;;0.47;0.47;;;25.20;74.60;;;;;;6243895;23;20190;-86
2023/08/02 01:59:27;;;;;;;1.45;0.30;;;25.20;74.60;;;;;;6242050;23;20250;-87
2023/08/02 02:01:56;;;;;;;0.20;0.20;;;25.10;74.50;;;;;;6244015;22;20540;-84
2023/08/02 02:04:24;;;;;;;1.50;0.45;;;25.00;74.50;;;;;;6242792;23;20171;-85
2023/08/02 02:06:53;;;;;;;0.57;0.57;;;25.00;74.80;;;;;;6244364;23;20170;-87
2023/08/02 02:09:21;;;;;;;0.30;0.30;;;25.00;75.00;;;;;;6215725;23;20162;-86
2023/08/02 02:11:51;;;;;;;0.50;0.50;;;25.00;75.10;;;;;;6243172;23;20173;-85
2023/08/02 02:14:20;;;;;;;0.63;0.57;;;24.90;75.10;;;;;;6242157;23;20643;-85
2023/08/02 02:16:48;;;;;;;0.80;0.68;;;24.90;75.40;;;;;;6242885;23;20249;-88
2023/08/02 02:19:17;;;;;;;0.20;0.20;;;24.80;75.50;;;;;;6240561;23;20177;-86
2023/08/02 02:21:45;;;;;;;0.68;0.40;;;24.80;75.40;;;;;;6210874;23;20174;-85
2023/08/02 02:24:14;;;;;;;1.10;0.45;;;24.80;75.70;;;;;;6242031;23;20181;-86
2023/08/02 02:26:42;;;;;;;0.47;0.47;;;24.70;75.60;;;;;;6242673;23;20171;-86
2023/08/02 02:29:13;;;;;;;0.20;0.20;;;24.60;75.70;;;;;;6241577;23;20193;-85
2023/08/02 02:31:41;;;;;;;0.20;0.20;;;24.60;75.70;;;;;;6242605;23;20169;-86
2023/08/02 02:34:09;;;;;;;0.68;0.60;;;24.60;75.80;;;;;;6242561;23;20952;-86
2023/08/02 02:36:38;;;;;;;0.20;0.20;;;24.60;75.80;;;;;;6241968;23;20245;-88
2023/08/02 02:39:07;;;;;;;0.30;0.30;;;24.60;76.00;;;;;;6242695;23;20162;-85
2023/08/02 02:41:36;;;;;;;0.70;0.52;;;24.50;76.00;;;;;;6243022;23;20173;-87
2023/08/02 02:44:04;;;;;;;0.20;0.20;;;24.50;76.00;;;;;;6215234;23;21080;-86
2023/08/02 02:46:34;;;;;;;1.38;0.40;;;24.50;76.10;;;;;;6242853;23;20157;-88
2023/08/02 02:49:03;;;;;;;0.28;0.28;;;24.50;76.10;;;;;;6242349;23;20198;-85
2023/08/02 02:51:31;;;;;;;0.73;0.50;;;24.50;76.10;;;;;;6241917;23;20773;-87
2023/08/02 02:54:00;;;;;;;0.20;0.20;;;24.40;76.10;;;;;;6243185;23;20854;-85
2023/08/02 02:56:28;;;;;;;0.30;0.25;;;24.40;76.30;;;;;;6241684;23;20176;-86
2023/08/02 02:58:57;;;;;;;0.40;0.40;;;24.40;76.30;;;;;;6242636;23;20198;-86
2023/08/02 03:01:25;;;;;;;0.43;0.40;;;24.40;76.60;;;;;;6242192;23;20249;-87
2023/08/02 03:03:56;;;;;;;0.45;0.30;;;24.30;76.50;;;;;;6240860;23;20170;-88
2023/08/02 03:06:25;;;;;;;2.88;0.47;;;24.30;76.50;;;;;;6240624;23;20162;-84
2023/08/02 03:08:53;;;;;;;0.82;0.77;;;24.30;76.90;;;;;;6243326;23;20170;-87
2023/08/02 03:11:22;;;;;;;0.30;0.30;;;24.30;76.80;;;;;;6241894;23;20187;-85
2023/08/02 03:13:50;;;;;;;0.73;0.63;;;24.30;77.20;;;;;;6242733;23;20190;-86
2023/08/02 03:16:18;;;;;;;1.10;0.60;;;24.20;77.20;;;;;;6242445;23;20787;-85
2023/08/02 03:18:48;;;;;;;0.60;0.60;;;24.20;77.20;;;;;;6242833;23;20167;-85
2023/08/02 03:21:18;;;;;;;0.85;0.65;;;24.20;77.30;;;;;;6241687;23;20173;-86
2023/08/02 03:23:46;;;;;;;0.60;0.60;;;24.20;77.60;;;;;;6242568;23;20858;-87
2023/08/02 03:26:15;;;;;;;3.63;0.80;;;24.20;77.70;;;;;;6241637;23;20171;-86
2023/08/02 03:28:43;;;;;;;0.55;0.47;;;24.20;78.10;;;;;;6243519;23;20261;-86
2023/08/02 03:31:13;;;;;;;0.52;0.52;;;24.10;78.10;;;;;;6242007;23;20170;-87
2023/08/02 03:33:41;;;;;;;0.40;0.40;;;24.10;78.40;;;;;;6244665;23;20213;-87
2023/08/02 03:36:10;;;;;;;0.43;0.43;;;24.10;78.50;;;;;;6243073;23;20162;-86
2023/08/02 03:38:40;;;;;;;0.40;0.30;;;24.00;78.40;;;;;;6244033;23;20162;-84
2023/08/02 03:41:08;;;;;;;1.48;0.38;;;24.00;78.40;;;;;;6241749;23;20173;-86
2023/08/02 03:43:36;;;;;;;0.30;0.30;;;24.00;78.60;;;;;;6242782;23;20178;-88
2023/08/02 03:46:05;;;;;;;0.65;0.40;;;24.00;78.70;;;;;;6242512;23;20219;-86
2023/08/02 03:48:34;;;;;;;0.60;0.52;;;24.00;78.80;;;;;;6243151;22;20170;-87
2023/08/02 03:51:02;;;;;;;0.20;0.20;;;24.10;78.80;;;;;;6240828;23;20166;-87
2023/08/02 03:53:31;;;;;;;0.52;0.52;;;24.10;78.90;;;;;;6243684;23;20281;-84
2023/08/02 03:56:02;;;;;;;0.50;0.50;;;24.10;79.10;;;;;;6241595;23;20173;-86
2023/08/02 03:58:30;;;;;;;0.50;0.50;;;24.10;79.30;;;;;;6218664;23;20158;-87
2023/08/02 04:00:59;;;;;;;1.38;0.70;;;24.10;79.30;;;;;;6242926;23;20569;-85
2023/08/02 04:03:27;;;;;;;0.47;0.47;;;24.10;79.30;;;;;;6244848;22;20172;-87
2023/08/02 04:05:56;;;;;;;0.32;0.32;;;24.20;79.40;;;;;;6244286;23;20170;-86
2023/08/02 04:08:24;;;;;;;0.38;0.30;;;24.10;79.30;;;;;;6243520;23;20175;-86
2023/08/02 04:10:53;;;;;;;1.63;0.50;;;24.20;79.80;;;;;;6243226;23;20186;-85
2023/08/02 04:17:07;;;;;;;1.17;0.70;;;24.30;80.10;;;;;;6195346;23;20170;-85
2023/08/02 04:19:35;;;;;;;0.50;0.50;;;24.30;81.00;;;;;;6241497;23;20175;-86
2023/08/02 04:22:04;;;;;;;1.08;0.80;;;24.30;80.90;;;;;;6241168;23;20441;-85
2023/08/02 04:24:34;;;;;;;0.50;0.50;;;24.40;80.80;;;;;;6242222;23;20182;-86
2023/08/02 04:27:02;;;;;;;0.77;0.77;;;24.50;81.00;;;;;;6241393;23;20503;-84
2023/08/02 04:29:32;;;;;;;0.88;0.82;;;24.60;81.10;;;;;;6241644;23;20162;-87
2023/08/02 04:32:01;;;;;;;0.30;0.30;;;24.60;81.20;;;;;;6241535;23;20181;-86
2023/08/02 04:34:29;;;;;;;0.50;0.40;;;24.70;81.00;;;;;;6240988;23;20273;-86
2023/08/02 04:36:58;;;;;;;0.30;0.30;;;24.70;80.90;;;;;;6242025;23;20182;-86
2023/08/02 04:39:26;;;;;;;1.13;1.02;;;24.80;80.80;;;;;;6242336;23;20162;-86
2023/08/02 04:41:55;;;;;;;0.88;0.47;;;24.80;81.20;;;;;;6243314;23;20171;-85
2023/08/02 04:44:24;;;;;;;1.60;0.70;;;24.80;81.40;;;;;;6240106;23;20208;-88
2023/08/02 04:46:54;;;;;;;0.95;0.80;;;24.90;81.70;;;;;;6241938;23;20166;-85
2023/08/02 04:49:23;;;;;;;0.68;0.50;;;24.90;81.60;;;;;;6240896;23;20770;-86
2023/08/02 04:51:51;;;;;;;0.95;0.73;;;24.90;81.80;;;;;;6241613;23;20253;-86
2023/08/02 04:54:20;;;;;;;0.28;0.28;;;24.90;82.50;;;;;;6242250;23;20564;-87
2023/08/02 04:56:48;;;;;;;0.80;0.80;;;24.90;82.60;;;;;;6241657;22;20163;-80
2023/08/02 04:59:17;;;;;;;0.60;0.60;;;25.00;82.50;;;;;;6240322;23;20506;-83
2023/08/02 05:01:45;;;;;;;0.45;0.45;;;25.00;82.30;;;;;;6241233;23;20405;-85
2023/08/02 05:04:30;;;;;;;0.30;0.30;;;25.00;82.60;;;;;;6241655;22;20167;-89
2023/08/02 05:06:58;;;;;;;0.60;0.60;;;25.00;82.30;;;;;;6242083;23;20627;-87
2023/08/02 05:09:27;;;;;;;0.28;0.28;;;25.10;82.50;;;;;;6243178;23;20496;-86
2023/08/02 05:11:55;;;;;;;0.32;0.32;;;25.10;82.60;;;;;;6242789;23;20207;-87
2023/08/02 05:14:24;;;;;;;0.50;0.50;;;25.20;82.60;;;;;;6241431;23;20202;-85
2023/08/02 05:16:52;;;;;;;0.47;0.47;;;25.20;82.30;;;;;;6242493;23;20489;-88
2023/08/02 05:19:23;;;;;;;3.92;0.40;;;25.30;82.50;;;;;;6243348;23;20166;-87
2023/08/02 05:21:53;;;;;;;0.82;0.75;;;25.40;82.30;;;;;;6239815;23;20172;-87
2023/08/02 05:24:22;;;;;;;1.33;0.40;;;25.40;82.20;;;;;;6242110;23;20162;-87
2023/08/02 05:26:50;;;;;;;1.65;1.33;;;25.50;82.10;;;;;;6243910;23;20166;-84
2023/08/02 05:29:19;;;;;;;0.20;0.20;;;25.50;82.10;;;;;;6241634;23;20170;-84
2023/08/02 05:31:47;;;;;;;0.60;0.60;;;25.60;82.00;;;;;;6240703;22;20167;-86
2023/08/02 05:34:16;;;;;;;0.50;0.45;;;25.60;81.90;;;;;;6241471;23;20186;-84
2023/08/02 05:36:45;;;;;;;0.20;0.20;;;25.70;81.80;;;;;;6239878;23;20217;-81
2023/08/02 05:39:15;;;;;;;0.40;0.40;;;25.70;81.60;;;;;;6237867;23;20207;-81
2023/08/02 05:41:43;;;;;;;0.20;0.20;;;25.80;81.60;;;;;;6238178;23;20212;-83
2023/08/02 05:44:11;;;;;;;3.65;0.82;;;25.90;81.60;;;;;;6240515;23;20171;-84
2023/08/02 05:46:40;;;;;;;0.60;0.60;;;26.00;81.50;;;;;;6240429;23;20245;-85
2023/08/02 05:49:08;;;;;;;0.57;0.57;;;26.00;81.60;;;;;;6239496;23;20166;-83
2023/08/02 05:51:37;;;;;;;0.30;0.30;;;26.10;81.50;;;;;;6240302;23;20166;-83
2023/08/02 05:54:05;;;;;;;0.43;0.43;;;26.10;81.40;;;;;;6240213;23;20526;-83
2023/08/02 05:56:35;;;;;;;0.50;0.35;;;26.20;81.40;;;;;;6241379;23;20175;-85
2023/08/02 05:59:04;;;;;;;0.57;0.57;;;26.30;81.30;;;;;;6242578;23;20194;-83
2023/08/02 06:01:32;;;;;;;0.47;0.47;;;26.30;81.10;;;;;;6239879;23;20172;-85
2023/08/02 06:04:01;;;;;;;1.42;1.02;;;26.40;81.10;;;;;;6239394;23;20632;-84
2023/08/02 06:06:29;;;;;;;1.95;0.80;;;26.40;81.40;;;;;;6240382;23;20163;-87
2023/08/02 06:08:58;;;;;;;1.17;0.98;;;26.40;81.00;;;;;;6243367;23;20232;-84
2023/08/02 06:11:27;;;;;;;0.70;0.70;;;26.40;81.00;;;;;;6239916;23;20169;-84
2023/08/02 06:13:56;;;;;;;0.50;0.50;;;26.50;81.10;;;;;;6241822;23;20246;-86
2023/08/02 06:16:26;;;;;;;0.40;0.40;;;26.50;80.80;;;;;;6239184;23;20202;-83
2023/08/02 06:18:55;;;;;;;0.60;0.60;;;26.60;80.70;;;;;;6242030;23;20624;-85
2023/08/02 06:21:24;;;;;;;0.95;0.47;;;26.60;80.50;;;;;;6242094;23;20205;-85
2023/08/02 06:23:52;;;;;;;0.47;0.30;;;26.70;80.50;;;;;;6242478;23;20169;-86
2023/08/02 06:26:21;;;;;;;0.57;0.52;;;26.70;80.40;;;;;;6237058;23;20176;-86
2023/08/02 06:28:50;;;;;;;1.15;0.55;;;26.80;80.30;;;;;;6239443;23;20173;-84
2023/08/02 06:31:19;;;;;;;1.55;1.00;;;26.90;80.20;;;;;;6236927;23;20250;-84
2023/08/02 06:33:48;;;;;;;1.50;0.77;;;26.90;80.00;;;;;;6239777;22;20596;-83
2023/08/02 06:36:16;;;;;;;0.90;0.63;;;26.90;79.80;;;;;;6237776;23;20198;-84
2023/08/02 06:38:46;;;;;;;0.32;0.30;;;26.90;79.60;;;;;;6242101;23;20937;-83
2023/08/02 06:41:14;;;;;;;0.82;0.80;;;27.00;79.40;;;;;;6239738;23;20178;-85
2023/08/02 06:43:43;;;;;;;0.63;0.50;;;27.00;79.20;;;;;;6240516;23;20190;-84
2023/08/02 06:46:11;;;;;;;1.00;0.90;;;27.10;79.30;;;;;;6237584;23;20205;-85
2023/08/02 06:48:41;;;;;;;0.55;0.50;;;27.10;79.10;;;;;;6240094;23;20174;-85
2023/08/02 06:51:12;;;;;;;0.40;0.40;;;27.10;78.90;;;;;;6240824;23;20170;-83
2023/08/02 06:53:41;;;;;;;0.65;0.47;;;27.20;78.70;;;;;;6237003;22;20173;-86
2023/08/02 06:56:13;;;;;;;0.47;0.40;;;27.20;78.60;;;;;;6241476;23;20194;-89
2023/08/02 06:58:42;;;;;;;0.40;0.40;;;27.20;78.50;;;;;;6239949;23;20171;-86
2023/08/02 07:01:15;;;;;;;1.10;0.68;;;27.30;78.50;;;;;;6239901;23;20534;-84
2023/08/02 07:03:45;;;;;;;0.63;0.63;;;27.30;78.40;;;;;;6240541;23;20162;-86
2023/08/02 07:06:16;;;;;;;4.10;0.63;;;27.30;78.20;;;;;;6236756;23;20697;-84
2023/08/02 07:08:45;;;;;;;1.75;0.40;;;27.40;78.20;;;;;;6241763;23;20229;-85
2023/08/02 07:11:13;;;;;;;1.52;0.88;;;27.40;78.20;;;;;;6241450;23;20170;-85
2023/08/02 07:14:02;;;;;;;1.25;1.15;;;27.40;78.10;;;;;;6239114;22;20167;-86
2023/08/02 07:16:30;;;;;;;0.50;0.50;;;27.50;78.10;;;;;;6243144;23;20722;-91
2023/08/02 07:19:02;;;;;;;0.50;0.50;;;27.50;77.80;;;;;;6244590;23;20486;-88
2023/08/02 07:21:31;;;;;;;0.32;0.32;;;27.60;77.70;;;;;;6242243;23;20216;-85
2023/08/02 07:24:00;;;;;;;0.47;0.38;;;27.60;77.50;;;;;;6240307;23;20173;-84
2023/08/02 07:26:29;;;;;;;0.57;0.57;;;27.70;77.50;;;;;;6243693;23;20186;-85
2023/08/02 07:28:59;;;;;;;0.25;0.25;;;27.70;77.40;;;;;;6238735;23;20232;-85
2023/08/02 07:31:31;;;;;;;0.85;0.82;;;27.80;77.30;;;;;;6242265;23;20166;-85
2023/08/02 07:34:01;;;;;;;0.30;0.30;;;27.80;77.20;;;;;;6240442;23;20487;-84
2023/08/02 07:36:30;;;;;;;0.55;0.55;;;27.90;76.90;;;;;;6242819;23;20248;-85
2023/08/02 07:38:59;;;;;;;0.40;0.40;;;27.90;76.80;;;;;;6242292;23;20170;-84
2023/08/02 07:41:28;;;;;;;0.30;0.30;;;28.00;76.90;;;;;;6241357;22;20221;-86
2023/08/02 07:43:57;;;;;;;0.30;0.30;;;28.00;76.90;;;;;;6240250;23;20193;-84
2023/08/02 07:46:25;;;;;;;0.20;0.20;;;28.10;76.70;;;;;;6241715;22;20192;-84
2023/08/02 07:48:55;;;;;;;0.40;0.40;;;28.10;76.60;;;;;;6238605;23;20186;-84
2023/08/02 07:51:25;;;;;;;0.60;0.52;;;28.10;75.90;;;;;;6213486;23;20173;-85
2023/08/02 07:53:53;;;;;;;0.68;0.60;;;28.10;75.60;;;;;;6242539;23;20169;-83
2023/08/02 07:56:23;;;;;;;0.80;0.63;;;28.10;75.50;;;;;;6240597;23;20194;-83
2023/08/02 07:58:52;;;;;;;0.47;0.47;;;28.20;75.60;;;;;;6214176;23;20177;-84
2023/08/02 08:01:21;;;;;;;0.50;0.50;;;28.20;75.60;;;;;;6239970;23;20175;-81
2023/08/02 08:03:49;;;;;;;0.85;0.85;;;28.20;75.40;;;;;;6240848;23;20244;-80
2023/08/02 08:06:23;;;;;;;0.52;0.52;;;28.30;75.40;;;;;;6239073;23;20193;-82
2023/08/02 08:08:53;;;;;;;0.28;0.28;;;28.30;75.30;;;;;;6241288;23;20155;-82
2023/08/02 08:11:22;;;;;;;1.63;0.85;;;28.40;75.40;;;;;;6213410;23;20166;-83
2023/08/02 08:14:06;;;;;;;0.22;0.20;;;28.40;75.90;;;;;;6242086;23;20158;-81
2023/08/02 08:16:35;;;;;;;0.70;0.40;;;28.40;75.10;;;;;;6242549;23;20660;-82
2023/08/02 08:19:04;;;;;;;0.30;0.30;;;28.50;75.20;;;;;;6238668;23;20169;-82
2023/08/02 08:21:32;;;;;;;0.60;0.47;;;28.50;74.70;;;;;;6215227;23;20202;-84
2023/08/02 08:24:03;;;;;;;0.55;0.47;;;28.60;74.80;;;;;;6213619;23;20540;-82
2023/08/02 08:26:31;;;;;;;0.30;0.30;;;28.70;74.70;;;;;;6242067;23;20177;-81
2023/08/02 08:29:00;;;;;;;0.40;0.40;;;28.70;74.20;;;;;;6214844;23;20166;-82
2023/08/02 08:31:29;;;;;;;1.20;0.65;;;28.80;74.00;;;;;;6241909;23;20224;-83
2023/08/02 08:33:57;;;;;;;0.40;0.40;;;28.80;73.60;;;;;;6213315;23;20233;-83
2023/08/02 08:36:29;;;;;;;2.15;1.35;;;28.90;73.90;;;;;;6241687;23;20187;-82
2023/08/02 08:38:57;;;;;;;0.73;0.73;;;28.90;73.90;;;;;;6241445;23;20167;-84
2023/08/02 08:41:28;;;;;;;0.55;0.55;;;29.00;73.90;;;;;;6240969;23;20809;-84
2023/08/02 08:43:57;;;;;;;0.30;0.30;;;29.00;74.00;;;;;;6239151;23;20606;-84
2023/08/02 08:46:26;;;;;;;0.57;0.57;;;29.10;74.10;;;;;;6242340;23;20178;-83
2023/08/02 08:48:55;;;;;;;0.40;0.40;;;29.10;74.00;;;;;;6239268;23;20562;-83
2023/08/02 08:51:24;;;;;;;0.20;0.20;;;29.20;74.00;;;;;;6239539;23;20249;-83
2023/08/02 08:53:56;;;;;;;0.70;0.50;;;29.30;74.00;;;;;;6215625;23;20189;-84
2023/08/02 08:56:25;;;;;;;0.20;0.20;;;29.30;73.80;;;;;;6242880;23;20187;-83
2023/08/02 08:58:59;;;;;;;0.45;0.45;;;29.40;73.80;;;;;;6242166;23;20225;-85
2023/08/02 09:01:28;;;;;;;0.30;0.30;;;29.50;73.70;;;;;;6243146;23;20167;-84
2023/08/02 09:03:57;;;;;;;1.20;0.60;;;29.60;73.70;;;;;;6242668;23;20546;-83
2023/08/02 09:06:27;;;;;;;0.60;0.60;;;29.60;73.00;;;;;;6241821;23;20612;-81
2023/08/02 09:08:55;;;;;;;0.68;0.38;;;29.60;72.80;;;;;;6242234;23;20170;-81
2023/08/02 09:11:24;;;;;;;0.50;0.50;;;29.70;71.50;;;;;;6239522;23;20171;-81
2023/08/02 09:14:12;;;;;;;2.33;0.93;;;29.70;71.60;;;;;;6240829;23;20166;-81
2023/08/02 09:16:59;;;;;;;0.40;0.40;;;29.80;70.90;;;;;;6234757;23;20564;-83
2023/08/02 09:19:29;;;;;;;0.40;0.40;;;29.90;71.10;;;;;;6238417;23;20201;-81
2023/08/02 09:22:12;;;;;;;1.38;0.57;;;30.00;71.10;;;;;;6236109;23;20151;-83
2023/08/02 09:24:42;;;;;;;10.77;0.95;;;30.10;70.40;;;;;;6241092;23;20159;-81
2023/08/02 09:27:15;;;;;;;1.10;0.95;;;30.10;70.00;;;;;;6240230;23;20612;-82
2023/08/02 09:29:47;;;;;;;0.40;0.40;;;30.20;68.30;;;;;;6242047;23;20212;-82
2023/08/02 09:32:16;;;;;;;0.80;0.80;;;30.20;67.20;;;;;;6238155;23;20246;-81
2023/08/02 09:34:46;;;;;;;0.40;0.40;;;30.30;67.50;;;;;;6240611;23;20177;-83
2023/08/02 09:37:16;;;;;;;0.63;0.63;;;30.40;68.20;;;;;;6240527;23;20190;-82
2023/08/02 09:39:52;;;;;;;1.17;0.90;;;30.50;67.40;;;;;;6240840;23;20174;-82
2023/08/02 09:42:24;;;;;;;1.83;0.77;;;30.60;67.10;;;;;;6241236;23;20168;-84
2023/08/02 09:44:57;;;;;;;0.80;0.80;;;30.60;65.60;;;;;;6240239;23;20194;-81
2023/08/02 09:47:27;;;;;;;1.20;0.50;;;30.70;65.00;;;;;;6239666;23;20166;-82
2023/08/02 09:50:10;;;;;;;0.88;0.88;;;30.70;65.30;;;;;;6240006;23;20159;-83
2023/08/02 09:52:40;;;;;;;1.70;1.17;;;30.80;65.70;;;;;;6216851;23;20631;-85
2023/08/02 09:55:12;;;;;;;0.70;0.70;;;30.80;63.20;;;;;;6236549;23;20224;-89
2023/08/02 09:57:45;;;;;;;0.98;0.82;;;30.90;63.70;;;;;;6187140;23;20190;-83
2023/08/02 10:00:18;;;;;;;1.38;0.93;;;30.90;64.10;;;;;;6210374;23;20165;-84
2023/08/02 10:02:49;;;;;;;1.00;0.60;;;31.00;64.50;;;;;;6241763;23;20607;-83
2023/08/02 10:05:19;;;;;;;0.65;0.65;;;31.10;64.10;;;;;;6237461;22;20229;-83
2023/08/02 10:07:50;;;;;;;0.30;0.30;;;31.20;63.80;;;;;;6238004;23;20751;-82
2023/08/02 10:10:21;;;;;;;1.85;0.43;;;31.30;63.30;;;;;;6237729;22;20836;-83
2023/08/02 10:12:53;;;;;;;1.15;1.05;;;31.40;63.10;;;;;;6239790;23;20225;-81
2023/08/02 10:15:25;;;;;;;0.30;0.30;;;31.40;61.40;;;;;;6238841;23;20163;-82
2023/08/02 10:17:56;;;;;;;0.43;0.40;;;31.50;61.60;;;;;;6214986;23;20190;-82
2023/08/02 10:20:25;;;;;;;1.40;0.90;;;31.50;62.00;;;;;;6239465;23;20212;-82
2023/08/02 10:22:55;;;;;;;0.55;0.50;;;31.60;62.10;;;;;;6239999;23;20557;-82
2023/08/02 10:25:25;;;;;;;1.02;0.75;;;31.70;61.80;;;;;;6212451;23;20212;-83
2023/08/02 10:27:53;;;;;;;3.08;0.90;;;31.80;61.80;;;;;;6214566;23;20631;-83
2023/08/02 10:30:24;;;;;;;0.70;0.60;;;31.80;60.80;;;;;;6241382;23;20730;-83
2023/08/02 10:33:14;;;;;;;1.65;0.60;;;31.90;61.10;;;;;;6242859;23;20174;-83
2023/08/02 10:35:57;;;;;;;0.57;0.50;;;31.90;61.30;;;;;;6239921;23;20388;-83
2023/08/02 10:38:46;;;;;;;0.60;0.57;;;32.00;59.20;;;;;;6239274;23;20222;-82
2023/08/02 10:41:16;;;;;;;0.55;0.55;;;32.00;59.30;;;;;;6240944;23;20217;-82
2023/08/02 10:44:10;;;;;;;0.95;0.60;;;32.10;58.50;;;;;;6239231;23;20198;-81
2023/08/02 10:46:40;;;;;;;0.30;0.30;;;32.20;59.10;;;;;;6239459;23;20458;-82
2023/08/02 10:49:42;;;;;;;0.50;0.50;;;32.20;58.80;;;;;;6240450;23;20250;-80
2023/08/02 10:52:27;;;;;;;0.70;0.40;;;32.30;59.10;;;;;;6118710;23;20168;-83
2023/08/02 10:55:13;;;;;;;0.60;0.47;;;32.30;59.10;;;;;;6116700;23;20679;-83
2023/08/02 10:58:05;;;;;;;0.22;0.22;;;32.40;59.10;;;;;;6202334;23;20209;-82
2023/08/02 11:00:37;;;;;;;0.45;0.45;;;32.50;59.60;;;;;;6240703;23;20154;-83
2023/08/02 11:03:07;;;;;;;0.52;0.52;;;32.60;59.30;;;;;;6238711;23;20233;-83
2023/08/02 11:05:42;;;;;;;0.63;0.60;;;32.60;57.60;;;;;;6238893;23;20167;-80
2023/08/02 11:08:11;;;;;;;0.43;0.43;;;32.70;57.70;;;;;;6234861;23;20164;-80
2023/08/02 11:10:50;;;;;;;0.63;0.50;;;32.70;56.80;;;;;;6237672;23;20167;-81
2023/08/02 11:13:19;;;;;;;1.90;0.90;;;32.80;56.70;;;;;;6235989;23;20198;-81
2023/08/02 11:15:48;;;;;;;1.73;0.70;;;32.80;55.10;;;;;;6236798;23;20174;-82
2023/08/02 11:18:19;;;;;;;0.40;0.40;;;32.90;55.90;;;;;;6239405;23;20678;-80
2023/08/02 11:21:08;;;;;;;0.77;0.60;;;32.90;56.30;;;;;;6240789;23;20162;-80
2023/08/02 11:23:36;;;;;;;0.73;0.47;;;33.00;56.10;;;;;;6239882;23;20216;-81
2023/08/02 11:26:09;;;;;;;7.60;0.55;;;33.10;56.40;;;;;;6236293;23;20173;-81
2023/08/02 11:28:43;;;;;;;1.65;0.55;;;33.10;56.00;;;;;;6250312;23;20983;-82
2023/08/02 11:31:11;;;;;;;0.88;0.68;;;33.20;56.20;;;;;;6239802;23;20172;-80
2023/08/02 11:33:42;;;;;;;0.80;0.73;;;33.20;55.30;;;;;;6238836;23;20829;-81
2023/08/02 11:36:10;;;;;;;0.40;0.40;;;33.20;53.70;;;;;;6238709;23;20592;-82
2023/08/02 11:38:39;;;;;;;0.80;0.65;;;33.30;52.80;;;;;;6241497;23;20269;-81
2023/08/02 11:41:20;;;;;;;0.43;0.43;;;33.40;53.60;;;;;;6239606;23;20679;-83
2023/08/02 11:43:49;;;;;;;0.73;0.40;;;33.50;54.00;;;;;;6241358;23;20154;-81
2023/08/02 11:46:21;;;;;;;0.88;0.88;;;33.50;53.40;;;;;;6240248;23;20186;-82
2023/08/02 11:48:51;;;;;;;0.40;0.40;;;33.60;53.90;;;;;;6238050;23;20971;-82
2023/08/02 11:51:22;;;;;;;2.95;1.30;;;33.70;53.90;;;;;;6239675;23;20171;-85
2023/08/02 11:53:52;;;;;;;0.55;0.50;;;33.70;53.10;;;;;;6242411;23;20170;-84
2023/08/02 11:56:21;;;;;;;9.02;1.75;;;33.80;53.40;;;;;;6241921;23;20605;-81
2023/08/02 11:58:50;;;;;;;0.40;0.40;;;33.80;53.90;;;;;;6245202;23;20301;-83
2023/08/02 12:01:20;;;;;;;1.75;0.85;;;33.90;53.70;;;;;;6242354;23;20690;-83
2023/08/02 12:04:00;;;;;;;0.60;0.50;;;33.90;53.80;;;;;;6242831;23;20212;-81
2023/08/02 12:06:44;;;;;;;0.98;0.70;;;33.90;53.60;;;;;;6243022;23;20163;-82
2023/08/02 12:09:14;;;;;;;0.63;0.50;;;33.90;53.40;;;;;;6243625;23;20456;-82
2023/08/02 12:11:42;;;;;;;2.30;1.02;;;34.00;53.50;;;;;;6244912;23;20189;-82
2023/08/02 12:14:11;;;;;;;0.90;0.63;;;34.00;53.20;;;;;;6240918;23;20301;-81
2023/08/02 12:16:40;;;;;;;0.73;0.50;;;34.00;52.80;;;;;;6241878;23;20162;-83
2023/08/02 12:19:11;;;;;;;0.50;0.50;;;34.10;53.00;;;;;;6241613;23;20190;-83
2023/08/02 12:21:43;;;;;;;0.88;0.50;;;34.10;53.00;;;;;;6240792;23;20151;-83
2023/08/02 12:24:16;;;;;;;0.28;0.28;;;34.10;53.00;;;;;;6238463;23;20163;-82
2023/08/02 12:26:45;;;;;;;0.30;0.30;;;34.10;52.80;;;;;;6242762;23;20242;-82
2023/08/02 12:29:23;;;;;;;0.77;0.75;;;34.20;51.80;;;;;;6241780;23;20182;-80
2023/08/02 12:31:53;;;;;;;0.43;0.30;;;34.20;52.30;;;;;;6242552;23;20151;-81
2023/08/02 12:34:27;;;;;;;0.60;0.60;;;34.20;51.10;;;;;;6239150;23;20630;-81
2023/08/02 12:36:57;;;;;;;1.75;0.60;;;34.20;51.00;;;;;;6244144;23;20166;-82
2023/08/02 12:39:26;;;;;;;2.22;0.63;;;34.20;51.40;;;;;;6216186;23;20212;-82
2023/08/02 12:41:55;;;;;;;0.63;0.63;;;34.20;51.40;;;;;;6215788;23;20178;-83
2023/08/02 12:44:24;;;;;;;0.70;0.70;;;34.20;51.00;;;;;;6242176;23;20289;-83
2023/08/02 12:46:52;;;;;;;3.35;0.68;;;34.30;50.50;;;;;;6243003;23;20155;-85
2023/08/02 12:49:21;;;;;;;1.00;0.93;;;34.30;50.60;;;;;;6242870;23;20229;-81
2023/08/02 12:51:51;;;;;;;0.52;0.47;;;34.30;50.10;;;;;;6242262;23;20189;-85
2023/08/02 12:54:19;;;;;;;0.57;0.57;;;34.20;50.70;;;;;;6241765;22;20228;-82
2023/08/02 12:56:48;;;;;;;1.33;0.93;;;34.30;51.20;;;;;;6216823;23;20170;-84
2023/08/02 12:59:17;;;;;;;4.32;0.50;;;34.20;50.60;;;;;;6215817;23;20198;-84
2023/08/02 13:01:45;;;;;;;1.73;1.05;;;34.20;50.60;;;;;;6243437;23;20249;-85
2023/08/02 13:04:14;;;;;;;0.50;0.50;;;34.20;50.50;;;;;;6243323;23;20166;-82
2023/08/02 13:06:42;;;;;;;0.52;0.52;;;34.20;50.90;;;;;;6243321;23;20185;-84
2023/08/02 13:09:24;;;;;;;0.68;0.68;;;34.20;50.70;;;;;;6243877;23;20158;-82